Time;durP1;ratioP1;P1;durP2;ratioP2;P2;SDS_P1;SDS_P2;PMS_P1;PMS_P2;Temp;Humidity;BMP_temperature;BMP_pressure;BME280_temperature;BME280_humidity;BME280_pressure;Samples;Min_cycle;Max_cycle;Signal;HPM_P1;HPM_P2
2021/12/09 00:02:02;;;;;;;;;1.00;1.00;;;;;20.49;32.90;99987.38;5038274;28;45273;-56
2021/12/09 00:04:30;;;;;;;;;2.00;0.00;;;;;20.47;32.83;99977.88;5056587;28;45242;-57
2021/12/09 00:06:58;;;;;;;;;3.25;0.75;;;;;20.48;33.00;99979.56;5038709;28;45444;-51
2021/12/09 00:09:24;;;;;;;;;0.00;0.00;;;;;20.48;32.28;99966.41;5056137;28;47066;-55
2021/12/09 00:11:50;;;;;;;;;2.00;2.00;;;;;20.47;32.42;99977.88;5056410;28;45417;-55
2021/12/09 00:14:23;;;;;;;;;0.25;0.25;;;;;20.45;32.34;99970.09;5056445;28;45442;-50
2021/12/09 00:16:49;;;;;;;;;1.00;1.00;;;;;20.44;32.52;99975.47;5056548;28;45498;-53
2021/12/09 00:19:16;;;;;;;;;2.50;0.00;;;;;20.44;32.75;99986.84;5055699;28;48231;-53
2021/12/09 00:21:42;;;;;;;;;1.00;1.00;;;;;20.39;32.45;99981.88;5056122;28;45664;-51
2021/12/09 00:24:07;;;;;;;;;0.00;0.00;;;;;20.43;32.37;99982.50;5056703;28;45346;-53
2021/12/09 00:26:33;;;;;;;;;1.00;1.00;;;;;20.43;32.85;99989.59;5038367;28;45313;-52
2021/12/09 00:28:58;;;;;;;;;0.00;0.00;;;;;20.41;32.25;99984.41;5055714;28;46156;-50
2021/12/09 00:31:24;;;;;;;;;1.00;1.00;;;;;20.40;32.57;99977.44;5056008;28;45186;-54
2021/12/09 00:33:50;;;;;;;;;1.00;1.00;;;;;20.39;32.40;99975.78;5056279;28;45765;-54
2021/12/09 00:36:26;;;;;;;;;1.00;1.00;;;;;20.39;32.44;99979.25;5038491;28;45593;-53
2021/12/09 00:38:54;;;;;;;;;0.50;0.50;;;;;20.39;32.47;99973.16;5058519;28;46979;-55
2021/12/09 00:41:19;;;;;;;;;2.00;0.00;;;;;20.39;32.87;99976.63;5059520;28;45422;-56
2021/12/09 00:43:45;;;;;;;;;1.00;1.00;;;;;20.36;32.38;99982.09;5059386;28;45388;-56
2021/12/09 00:46:11;;;;;;;;;0.00;0.00;;;;;20.32;32.69;99980.63;5059765;28;45336;-54
2021/12/09 00:48:36;;;;;;;;;1.50;1.50;;;;;20.36;32.95;99983.88;5059338;28;45544;-53
2021/12/09 00:51:04;;;;;;;;;0.25;0.25;;;;;20.36;32.87;99984.72;5059456;28;45362;-56
2021/12/09 00:53:30;;;;;;;;;0.25;0.25;;;;;20.35;32.28;99985.66;5058132;28;45495;-52
2021/12/09 00:55:55;;;;;;;;;0.00;0.00;;;;;20.35;32.50;99992.72;5059562;28;45280;-53
2021/12/09 00:58:21;;;;;;;;;0.25;0.25;;;;;20.33;32.76;99986.72;5059191;28;46285;-55
2021/12/09 01:00:47;;;;;;;;;0.25;0.00;;;;;20.33;32.47;100003.38;5059384;28;45363;-53
2021/12/09 01:03:14;;;;;;;;;0.00;0.00;;;;;20.32;32.73;100006.94;5059437;28;45456;-53
2021/12/09 01:05:39;;;;;;;;;0.00;0.00;;;;;20.32;32.36;100001.69;5059752;28;45388;-52
2021/12/09 01:08:06;;;;;;;;;1.00;1.00;;;;;20.33;32.70;100002.50;5041041;28;46236;-52
2021/12/09 01:10:31;;;;;;;;;2.00;1.00;;;;;20.29;32.34;99986.09;5059221;28;45837;-53
2021/12/09 01:12:57;;;;;;;;;1.50;0.00;;;;;20.30;32.83;99990.41;5059127;28;45321;-55
2021/12/09 01:15:23;;;;;;;;;0.75;0.75;;;;;20.29;32.75;99996.63;5041239;28;45400;-53
2021/12/09 01:17:50;;;;;;;;;1.00;1.00;;;;;20.30;32.21;99998.31;5058772;28;46652;-55
2021/12/09 01:20:18;;;;;;;;;0.00;0.00;;;;;20.28;32.54;99992.31;5059012;28;45387;-53
2021/12/09 01:22:45;;;;;;;;;2.50;0.00;;;;;20.28;32.43;99994.09;5059067;28;45322;-49
2021/12/09 01:25:13;;;;;;;;;0.00;0.00;;;;;20.29;32.74;100015.03;5059398;28;45475;-55
2021/12/09 01:27:43;;;;;;;;;0.50;0.50;;;;;20.27;32.75;100014.28;5040964;28;46150;-53
2021/12/09 01:30:13;;;;;;;;;0.00;0.00;;;;;20.27;32.80;100018.72;5059329;28;45391;-56
2021/12/09 01:32:43;;;;;;;;;2.00;1.00;;;;;20.25;32.43;100016.19;5041045;28;45405;-53
2021/12/09 01:35:10;;;;;;;;;0.50;0.50;;;;;20.27;32.78;100018.72;5041868;28;45368;-53
2021/12/09 01:37:37;;;;;;;;;0.00;0.00;;;;;20.26;32.26;100024.94;5058451;28;45524;-55
2021/12/09 01:40:04;;;;;;;;;1.00;1.00;;;;;20.23;32.38;100023.31;5058623;28;45252;-51
2021/12/09 01:42:29;;;;;;;;;1.00;1.00;;;;;20.23;32.56;100024.19;5058752;28;45256;-49
2021/12/09 01:44:55;;;;;;;;;0.00;0.00;;;;;20.22;32.38;100019.03;5058853;28;45660;-51
2021/12/09 01:47:20;;;;;;;;;0.00;0.00;;;;;20.23;32.52;100025.97;5058403;28;45589;-50
2021/12/09 01:49:46;;;;;;;;;0.75;0.75;;;;;20.21;32.52;100025.25;5058268;28;45387;-55
2021/12/09 01:52:12;;;;;;;;;0.50;0.00;;;;;20.20;32.39;100034.06;5059021;28;45340;-52
2021/12/09 01:54:37;;;;;;;;;1.00;1.00;;;;;20.21;32.64;100038.41;5058713;28;45259;-53
2021/12/09 01:57:08;;;;;;;;;1.50;0.00;;;;;20.21;32.85;100048.91;5058199;28;46401;-55
2021/12/09 01:59:34;;;;;;;;;0.00;0.00;;;;;20.20;32.89;100044.59;5058527;28;45277;-55
2021/12/09 02:02:00;;;;;;;;;1.75;0.00;;;;;20.18;32.34;100039.44;5058638;28;45856;-55
2021/12/09 02:04:26;;;;;;;;;0.00;0.00;;;;;20.19;32.83;100048.19;5058679;28;45592;-54
2021/12/09 02:06:52;;;;;;;;;0.50;0.50;;;;;20.18;32.25;100047.31;5057407;28;45555;-56
2021/12/09 02:09:18;;;;;;;;;0.00;0.00;;;;;20.18;32.78;100049.13;5058125;28;45375;-55
2021/12/09 02:11:43;;;;;;;;;0.00;0.00;;;;;20.17;32.93;100043.03;5040734;28;45352;-56
2021/12/09 02:14:09;;;;;;;;;0.25;0.25;;;;;20.15;32.34;100037.00;5058376;28;45308;-55
2021/12/09 02:16:35;;;;;;;;;0.00;0.00;;;;;20.17;32.70;100050.06;5039918;28;46373;-55
2021/12/09 02:19:01;;;;;;;;;1.00;0.00;;;;;20.15;32.84;100047.53;5039598;28;45767;-55
2021/12/09 02:21:34;;;;;;;;;0.00;0.00;;;;;20.14;32.24;100037.09;5058081;28;45238;-54
2021/12/09 02:24:06;;;;;;;;;1.50;1.00;;;;;20.15;32.66;100047.53;5058286;28;45526;-54
2021/12/09 02:26:36;;;;;;;;;1.75;0.75;;;;;20.13;32.71;100044.16;5058063;28;45614;-56
2021/12/09 02:29:04;;;;;;;;;0.75;0.75;;;;;20.12;32.17;100042.47;5057882;28;46022;-56
2021/12/09 02:31:30;;;;;;;;;1.00;1.00;;;;;20.12;32.76;100041.66;5039873;28;45502;-56
2021/12/09 02:33:57;;;;;;;;;1.25;1.25;;;;;20.10;32.79;100049.63;5058136;28;45554;-56
2021/12/09 02:36:23;;;;;;;;;0.50;0.00;;;;;20.11;32.24;100046.03;5057778;28;45471;-53
2021/12/09 02:38:50;;;;;;;;;2.50;0.50;;;;;20.11;32.48;100045.22;5057744;28;45450;-53
2021/12/09 02:41:23;;;;;;;;;1.50;0.50;;;;;20.08;32.95;100039.22;5058286;28;45456;-53
2021/12/09 02:43:52;;;;;;;;;0.00;0.00;;;;;20.06;32.34;100038.47;5058021;28;45451;-53
2021/12/09 02:46:18;;;;;;;;;1.25;0.75;;;;;20.14;32.41;100047.63;5057452;28;45648;-54
2021/12/09 02:48:45;;;;;;;;;0.00;0.00;;;;;20.16;32.41;100046.59;5057628;28;45296;-56
2021/12/09 02:51:12;;;;;;;;;0.00;0.00;;;;;20.20;32.42;100045.44;5057785;28;45264;-56
2021/12/09 02:53:38;;;;;;;;;0.00;0.00;;;;;20.25;32.95;100039.84;5057838;28;45958;-54
2021/12/09 02:56:04;;;;;;;;;0.00;0.00;;;;;20.31;32.64;100035.97;5057159;28;46808;-56
2021/12/09 02:58:30;;;;;;;;;0.00;0.00;;;;;20.36;32.41;100036.53;5057436;28;45844;-56
2021/12/09 03:01:14;;;;;;;;;0.75;0.75;;;;;20.43;32.37;100052.75;5056611;28;45328;-54
2021/12/09 03:03:50;;;;;;;;;0.25;0.25;;;;;20.49;32.55;100057.59;5039435;28;45443;-55
2021/12/09 03:06:17;;;;;;;;;0.00;0.00;;;;;20.53;32.58;100054.63;5057483;28;47376;-55
2021/12/09 03:08:43;;;;;;;;;0.25;0.00;;;;;20.59;32.76;100055.19;5057200;28;45335;-55
2021/12/09 03:11:19;;;;;;;;;0.00;0.00;;;;;20.63;32.43;100052.22;5057376;28;45378;-56
2021/12/09 03:13:45;;;;;;;;;0.00;0.00;;;;;20.67;32.26;100058.13;5057756;28;45657;-57
2021/12/09 03:16:11;;;;;;;;;0.00;0.00;;;;;20.73;32.77;100056.88;5057091;28;45320;-56
2021/12/09 03:18:42;;;;;;;;;0.00;0.00;;;;;20.77;32.64;100067.13;5038794;28;45618;-56
2021/12/09 03:21:20;;;;;;;;;0.00;0.00;;;;;20.82;32.13;100053.63;5039316;28;45329;-56
2021/12/09 03:23:47;;;;;;;;;0.00;0.00;;;;;20.85;32.26;100054.25;5057533;28;45479;-56
2021/12/09 03:26:14;;;;;;;;;0.00;0.00;;;;;20.89;32.19;100059.31;5056987;28;45459;-56
2021/12/09 03:28:39;;;;;;;;;0.00;0.00;;;;;20.91;32.14;100060.88;5056865;28;45765;-52
2021/12/09 03:31:05;;;;;;;;;0.00;0.00;;;;;20.94;32.02;100063.31;5057137;28;45318;-55
2021/12/09 03:33:31;;;;;;;;;0.00;0.00;;;;;20.96;32.16;100058.78;5057091;28;45470;-55
2021/12/09 03:36:03;;;;;;;;;1.25;0.00;;;;;20.98;32.32;100074.47;5056782;28;45780;-54
2021/12/09 03:38:29;;;;;;;;;0.00;0.00;;;;;20.99;32.46;100063.84;5038709;28;45769;-56
2021/12/09 03:40:54;;;;;;;;;0.00;0.00;;;;;21.00;32.05;100062.88;5056938;28;45394;-56
2021/12/09 03:43:21;;;;;;;;;0.00;0.00;;;;;21.01;32.09;100076.91;5057314;28;45533;-52
2021/12/09 03:45:47;;;;;;;;;0.00;0.00;;;;;21.02;32.00;100070.69;5056899;28;46842;-56
2021/12/09 03:48:13;;;;;;;;;1.00;0.00;;;;;21.01;32.40;100071.63;5056605;28;45637;-56
2021/12/09 03:50:39;;;;;;;;;0.00;0.00;;;;;21.04;32.04;100081.13;5056792;28;45220;-55
2021/12/09 03:53:04;;;;;;;;;1.50;0.00;;;;;21.04;31.93;100086.38;5056845;28;45551;-55
2021/12/09 03:55:30;;;;;;;;;1.00;0.00;;;;;21.04;31.94;100081.97;5056482;28;45603;-56
2021/12/09 03:57:55;;;;;;;;;0.00;0.00;;;;;21.05;32.24;100082.81;5038432;28;45281;-56
2021/12/09 04:00:23;;;;;;;;;2.00;0.75;;;;;21.04;32.28;100081.13;5022139;28;45193;-50
2021/12/09 04:02:49;;;;;;;;;1.00;1.00;;;;;21.03;32.01;100080.28;5056944;28;45379;-56
2021/12/09 04:05:15;;;;;;;;;0.00;0.00;;;;;21.03;32.01;100090.81;5056450;28;45658;-56
2021/12/09 04:07:40;;;;;;;;;0.00;0.00;;;;;21.03;31.98;100092.59;5056276;28;45457;-56
2021/12/09 04:10:07;;;;;;;;;2.00;0.00;;;;;21.01;31.79;100092.72;5056605;28;45302;-55
2021/12/09 04:12:32;;;;;;;;;0.00;0.00;;;;;21.01;32.11;100092.72;5058938;28;45561;-55
2021/12/09 04:14:58;;;;;;;;;0.75;0.00;;;;;21.00;32.00;100094.50;5059895;28;45586;-55
2021/12/09 04:17:23;;;;;;;;;0.00;0.00;;;;;20.98;32.07;100090.28;5059739;28;45422;-56
2021/12/09 04:19:48;;;;;;;;;1.00;0.00;;;;;20.98;32.06;100096.41;5060354;28;45335;-56
2021/12/09 04:22:16;;;;;;;;;0.00;0.00;;;;;20.98;32.19;100099.03;5060112;28;45220;-54
2021/12/09 04:24:42;;;;;;;;;2.25;1.00;;;;;20.97;32.24;100097.38;5059722;28;47435;-55
2021/12/09 04:27:07;;;;;;;;;0.00;0.00;;;;;20.96;31.62;100098.31;5059852;28;45461;-55
2021/12/09 04:29:33;;;;;;;;;0.25;0.25;;;;;20.95;31.65;100104.53;5059865;28;45288;-54
2021/12/09 04:31:58;;;;;;;;;0.00;0.00;;;;;20.94;31.64;100096.72;5060001;28;45649;-56
2021/12/09 04:34:23;;;;;;;;;0.50;0.50;;;;;20.95;32.21;100104.53;5059597;28;46185;-53
2021/12/09 04:36:49;;;;;;;;;0.50;0.00;;;;;20.92;32.18;100094.19;5059884;28;45319;-54
2021/12/09 04:39:15;;;;;;;;;0.00;0.00;;;;;20.94;31.95;100102.00;5059764;28;45356;-55
2021/12/09 04:41:40;;;;;;;;;0.00;0.00;;;;;20.92;31.69;100093.34;5041701;28;45562;-54
2021/12/09 04:44:07;;;;;;;;;0.00;0.00;;;;;20.92;32.13;100094.19;5059414;28;46651;-55
2021/12/09 04:46:33;;;;;;;;;0.00;0.00;;;;;20.92;32.12;100098.63;5059579;28;45561;-54
2021/12/09 04:48:59;;;;;;;;;0.00;0.00;;;;;20.91;32.10;100099.56;5057505;28;45488;-51
2021/12/09 04:51:24;;;;;;;;;0.00;0.00;;;;;20.90;31.67;100106.59;5059710;28;45343;-50
2021/12/09 04:53:50;;;;;;;;;0.00;0.00;;;;;20.87;32.02;100096.31;5059704;28;45269;-55
2021/12/09 04:56:15;;;;;;;;;0.00;0.00;;;;;20.84;32.14;100101.78;5059283;28;45224;-54
2021/12/09 04:58:41;;;;;;;;;0.00;0.00;;;;;20.80;31.65;100097.66;5059358;28;45255;-52
2021/12/09 05:01:07;;;;;;;;;1.00;0.00;;;;;20.76;32.02;100096.19;5059498;28;45319;-54
2021/12/09 05:03:32;;;;;;;;;1.00;0.00;;;;;20.74;32.31;100096.28;5059091;28;45335;-53
2021/12/09 05:05:58;;;;;;;;;0.00;0.00;;;;;20.74;32.06;100101.56;5059158;28;45444;-55
2021/12/09 05:08:28;;;;;;;;;0.25;0.25;;;;;20.73;32.21;100114.78;5059606;28;45375;-54
2021/12/09 05:13:28;;;;;;;;;0.00;0.00;;;;;20.69;31.85;100108.91;5058950;28;45316;-56
2021/12/09 05:15:55;;;;;;;;;1.25;0.00;;;;;20.67;32.43;100106.34;5041298;28;45641;-55
2021/12/09 05:18:23;;;;;;;;;1.00;0.00;;;;;20.66;32.28;100103.84;5059263;28;45545;-56
2021/12/09 05:20:48;;;;;;;;;1.50;0.25;;;;;20.64;32.00;100109.22;5057799;28;45629;-56
2021/12/09 05:23:17;;;;;;;;;1.50;1.50;;;;;20.64;32.44;100106.59;5058188;28;46555;-54
2021/12/09 05:25:43;;;;;;;;;1.50;0.50;;;;;20.62;32.36;100113.75;5058845;28;45633;-55
2021/12/09 05:28:11;;;;;;;;;1.00;1.00;;;;;20.61;31.93;100104.16;5058920;28;45189;-52
2021/12/09 05:32:07;;;;;;;;;0.25;0.00;;;;;20.60;31.65;100107.72;5059213;28;45475;-53
2021/12/09 05:33:27;;;;;;;;;1.00;0.00;;;;;20.59;31.87;100113.94;5059077;28;45339;-52
2021/12/09 05:35:53;;;;;;;;;2.00;0.00;;;;;20.59;32.38;100113.94;5057807;28;45665;-52
2021/12/09 05:38:19;;;;;;;;;0.00;0.00;;;;;20.57;31.84;100115.81;5058904;28;45246;-54
2021/12/09 05:40:44;;;;;;;;;1.00;0.00;;;;;20.54;32.38;100113.41;5058984;28;45319;-50
2021/12/09 05:43:09;;;;;;;;;0.00;0.00;;;;;20.53;32.40;100114.34;5058570;28;45360;-54
2021/12/09 05:45:35;;;;;;;;;1.25;1.00;;;;;20.53;32.40;100115.19;5040476;28;45391;-54
2021/12/09 05:48:00;;;;;;;;;0.00;0.00;;;;;20.53;32.17;100117.00;5058655;28;45217;-54
2021/12/09 05:50:25;;;;;;;;;2.00;0.00;;;;;20.50;32.00;100106.66;5058990;28;45230;-54
2021/12/09 05:52:51;;;;;;;;;1.50;1.00;;;;;20.48;32.28;100106.78;5058452;28;46128;-51
2021/12/09 05:55:16;;;;;;;;;0.00;0.00;;;;;20.49;32.27;100119.00;5058349;28;45388;-54
2021/12/09 05:57:42;;;;;;;;;0.00;0.00;;;;;20.48;31.85;100119.06;5058754;28;45365;-56
2021/12/09 06:00:08;;;;;;;;;0.00;0.00;;;;;20.45;32.26;100111.41;5058581;28;45643;-50
2021/12/09 06:02:35;;;;;;;;;4.00;1.00;;;;;20.47;32.27;100127.91;5057991;28;46635;-52
2021/12/09 06:05:02;;;;;;;;;0.00;0.00;;;;;20.44;31.70;100131.59;5058090;28;45772;-53
2021/12/09 06:07:27;;;;;;;;;0.00;0.00;;;;;20.43;32.00;100126.44;5058627;28;45247;-53
2021/12/09 06:09:52;;;;;;;;;0.25;0.25;;;;;20.43;31.85;100134.34;5058401;28;45174;-53
2021/12/09 06:12:19;;;;;;;;;0.25;0.25;;;;;20.43;31.92;100132.53;5058102;28;45595;-54
2021/12/09 06:14:45;;;;;;;;;0.00;0.00;;;;;20.41;31.74;100133.59;5039949;28;45345;-53
2021/12/09 06:17:10;;;;;;;;;0.00;0.00;;;;;20.39;31.72;100134.53;5058077;28;45225;-55
2021/12/09 06:19:35;;;;;;;;;0.75;0.00;;;;;20.38;32.30;100127.59;5057884;28;45209;-53
2021/12/09 06:22:01;;;;;;;;;4.00;1.00;;;;;20.37;32.18;100135.59;5057725;28;45415;-56
2021/12/09 06:24:27;;;;;;;;;0.00;0.00;;;;;20.37;32.00;100139.06;5059550;28;45650;-56
2021/12/09 06:26:52;;;;;;;;;0.00;0.00;;;;;20.37;31.96;100146.94;5058006;28;45344;-54
2021/12/09 06:29:17;;;;;;;;;0.00;0.00;;;;;20.35;32.22;100140.94;5057945;28;45544;-56
2021/12/09 06:31:43;;;;;;;;;0.00;0.00;;;;;20.35;32.16;100142.75;5057743;28;47046;-52
2021/12/09 06:34:11;;;;;;;;;0.50;0.50;;;;;20.34;32.33;100135.78;5039827;28;45486;-51
2021/12/09 06:36:37;;;;;;;;;0.50;0.00;;;;;20.34;31.87;100146.31;5038730;28;45399;-52
2021/12/09 06:39:05;;;;;;;;;1.00;1.00;;;;;20.33;31.69;100137.59;5058058;28;45283;-53
2021/12/09 06:41:31;;;;;;;;;2.00;1.25;;;;;20.33;32.23;100150.75;5057376;28;45449;-53
2021/12/09 06:43:57;;;;;;;;;3.50;0.25;;;;;20.34;32.14;100151.56;5057798;28;45408;-54
2021/12/09 06:46:22;;;;;;;;;1.50;1.00;;;;;20.33;31.83;100156.00;5057664;28;45327;-54
2021/12/09 06:48:48;;;;;;;;;2.50;1.50;;;;;20.33;31.96;100156.00;5057586;28;45263;-53
2021/12/09 06:51:13;;;;;;;;;2.50;0.25;;;;;20.35;31.89;100158.53;5057310;28;46689;-49
2021/12/09 06:53:39;;;;;;;;;0.50;0.50;;;;;20.38;31.86;100166.22;5039358;28;45599;-55
2021/12/09 06:56:06;;;;;;;;;1.25;0.50;;;;;20.38;32.18;100164.44;5057526;28;45434;-54
2021/12/09 06:58:31;;;;;;;;;2.00;0.75;;;;;20.38;32.17;100158.34;5057644;28;45386;-55
2021/12/09 07:00:58;;;;;;;;;1.25;1.00;;;;;20.42;32.13;100169.50;5057246;28;46518;-56
2021/12/09 07:03:23;;;;;;;;;1.75;0.50;;;;;20.41;32.26;100166.00;5057274;28;45452;-56
2021/12/09 07:05:52;;;;;;;;;1.00;1.00;;;;;20.43;32.55;100176.47;5057326;28;45295;-55
2021/12/09 07:08:19;;;;;;;;;1.75;1.00;;;;;20.44;32.57;100178.16;5039385;28;45530;-56
2021/12/09 07:10:45;;;;;;;;;1.00;1.00;;;;;20.44;32.70;100172.88;5057288;28;46464;-52
2021/12/09 07:13:11;;;;;;;;;1.50;1.50;;;;;20.44;32.56;100178.16;5056856;28;45369;-53
2021/12/09 07:15:37;;;;;;;;;0.00;0.00;;;;;20.44;32.39;100176.34;5057243;28;45518;-55
2021/12/09 07:18:04;;;;;;;;;1.00;1.00;;;;;20.45;32.24;100166.69;5056201;28;45627;-52
2021/12/09 07:20:32;;;;;;;;;2.00;2.00;;;;;20.45;32.55;100177.22;5056905;28;46873;-52
2021/12/09 07:22:58;;;;;;;;;1.75;1.00;;;;;20.43;32.68;100173.81;5057210;28;45471;-56
2021/12/09 07:25:26;;;;;;;;;4.00;1.00;;;;;20.44;32.33;100175.50;5055937;28;45311;-48
2021/12/09 07:27:52;;;;;;;;;0.50;0.50;;;;;20.42;32.64;100169.50;5057340;28;45315;-53
2021/12/09 07:30:20;;;;;;;;;0.00;0.00;;;;;20.41;32.53;100170.44;5056987;28;45289;-55
2021/12/09 07:32:46;;;;;;;;;2.25;2.00;;;;;20.39;32.31;100163.50;5056900;28;45252;-56
2021/12/09 07:35:14;;;;;;;;;3.50;1.00;;;;;20.37;32.22;100168.00;5057074;28;45387;-56
2021/12/09 07:37:40;;;;;;;;;2.00;1.00;;;;;20.34;32.38;100160.28;5057102;28;45541;-56
2021/12/09 07:40:09;;;;;;;;;1.00;1.00;;;;;20.32;32.55;100164.84;5056552;28;46413;-54
2021/12/09 07:42:35;;;;;;;;;2.00;1.00;;;;;20.31;32.48;100160.53;5056663;28;45243;-56
2021/12/09 07:45:01;;;;;;;;;3.00;2.00;;;;;20.30;32.18;100171.13;5057051;28;45336;-52
2021/12/09 07:47:27;;;;;;;;;2.50;2.00;;;;;20.28;32.64;100165.97;5056539;28;45281;-53
2021/12/09 07:49:52;;;;;;;;;3.00;2.00;;;;;20.26;32.17;100170.47;5056460;28;45355;-53
2021/12/09 07:52:18;;;;;;;;;1.00;1.00;;;;;20.22;32.37;100169.03;5056572;28;45389;-53
2021/12/09 07:54:43;;;;;;;;;1.00;1.00;;;;;20.19;32.18;100172.66;5056596;28;45398;-51
2021/12/09 07:57:09;;;;;;;;;1.00;1.00;;;;;20.19;32.56;100174.47;5038221;28;45527;-51
2021/12/09 07:59:34;;;;;;;;;1.25;1.25;;;;;20.17;32.68;100171.09;5056114;28;47129;-54
2021/12/09 08:02:00;;;;;;;;;2.25;2.00;;;;;20.15;32.38;100167.69;5056717;28;45367;-53
2021/12/09 08:04:25;;;;;;;;;2.00;2.00;;;;;20.13;32.37;100164.31;5056473;28;45344;-55
2021/12/09 08:06:51;;;;;;;;;5.50;1.25;;;;;20.14;32.53;100166.88;5038424;28;45575;-54
2021/12/09 08:09:16;;;;;;;;;1.00;1.00;;;;;20.13;32.30;100173.06;5056009;28;45679;-52
2021/12/09 08:11:43;;;;;;;;;3.75;1.75;;;;;20.12;32.45;100168.75;5056062;28;45387;-53
2021/12/09 08:14:15;;;;;;;;;3.75;2.00;;;;;20.12;32.61;100178.44;5055207;28;45447;-53
2021/12/09 08:16:41;;;;;;;;;1.00;1.00;;;;;20.11;32.16;100176.75;5056485;28;45300;-52
2021/12/09 08:19:09;;;;;;;;;2.25;2.25;;;;;20.10;32.37;100186.41;5055865;28;46421;-53
2021/12/09 08:21:37;;;;;;;;;3.00;1.00;;;;;20.08;32.40;100178.63;5055923;28;45297;-53
2021/12/09 08:24:04;;;;;;;;;1.75;1.00;;;;;20.10;32.76;100188.22;5056516;28;45346;-55
2021/12/09 08:26:30;;;;;;;;;1.75;1.00;;;;;20.08;32.76;100176.00;5056609;28;45586;-54
2021/12/09 08:28:55;;;;;;;;;1.00;1.00;;;;;20.07;32.32;100181.34;5055778;28;46381;-56
2021/12/09 08:31:21;;;;;;;;;2.50;1.00;;;;;20.06;32.36;100175.25;5056013;28;45343;-55
2021/12/09 08:33:47;;;;;;;;;3.00;1.00;;;;;20.06;32.30;100175.25;5055955;28;45404;-52
2021/12/09 08:36:12;;;;;;;;;2.00;2.00;;;;;20.04;32.58;100174.50;5056259;28;45653;-52
2021/12/09 08:38:37;;;;;;;;;1.75;0.75;;;;;20.03;32.28;100175.44;5055613;28;46465;-51
2021/12/09 08:41:04;;;;;;;;;4.00;2.50;;;;;20.04;32.58;100179.75;5037954;28;45182;-52
2021/12/09 08:43:29;;;;;;;;;1.50;1.50;;;;;20.01;32.68;100179.94;5038052;28;45312;-54
2021/12/09 08:45:56;;;;;;;;;1.75;1.75;;;;;20.02;32.75;100183.44;5056147;28;45185;-56
2021/12/09 08:48:23;;;;;;;;;4.75;3.50;;;;;20.01;32.62;100179.13;5055499;28;46311;-53
2021/12/09 08:50:49;;;;;;;;;1.50;1.25;;;;;20.02;32.56;100191.31;5055692;28;45920;-56
2021/12/09 08:53:18;;;;;;;;;1.25;1.25;;;;;19.99;32.73;100192.38;5055872;28;45338;-56
2021/12/09 08:55:44;;;;;;;;;1.50;1.50;;;;;20.00;32.49;100190.56;5056000;28;45411;-55
2021/12/09 08:58:11;;;;;;;;;3.00;3.00;;;;;20.00;32.82;100199.31;5055733;28;45358;-56
2021/12/09 09:00:38;;;;;;;;;3.25;1.50;;;;;20.04;32.66;100208.69;5059227;28;45399;-55
2021/12/09 09:03:04;;;;;;;;;4.50;1.50;;;;;20.06;32.65;100201.56;5059588;28;45470;-55
2021/12/09 09:05:32;;;;;;;;;3.00;2.00;;;;;20.11;32.32;100208.31;5059003;28;45306;-52
2021/12/09 09:07:59;;;;;;;;;1.00;1.00;;;;;20.16;32.74;100211.50;5058844;28;45420;-53
2021/12/09 09:10:26;;;;;;;;;1.00;1.00;;;;;20.19;32.68;100219.19;5058988;28;45259;-54
2021/12/09 09:12:53;;;;;;;;;1.00;1.00;;;;;20.26;32.59;100217.03;5059046;28;45410;-53
2021/12/09 09:15:21;;;;;;;;;1.00;1.00;;;;;20.29;32.55;100222.94;5059256;28;45317;-54
2021/12/09 09:17:48;;;;;;;;;3.75;1.00;;;;;20.33;32.13;100224.44;5058663;28;45481;-54
2021/12/09 09:20:16;;;;;;;;;3.75;1.00;;;;;20.39;32.31;100234.56;5058833;28;45918;-56
2021/12/09 09:22:42;;;;;;;;;2.00;2.00;;;;;20.39;32.05;100231.91;5059037;28;45669;-56
2021/12/09 09:25:14;;;;;;;;;4.00;2.00;;;;;20.45;31.98;100221.94;5059029;28;45691;-55
2021/12/09 09:27:40;;;;;;;;;2.00;2.00;;;;;20.48;32.01;100233.13;5058670;28;47219;-56
2021/12/09 09:30:07;;;;;;;;;1.00;1.00;;;;;20.52;32.54;100233.75;5058910;28;45217;-53
2021/12/09 09:32:34;;;;;;;;;1.00;1.00;;;;;20.55;32.24;100233.56;5059120;28;45360;-52
2021/12/09 09:34:59;;;;;;;;;1.75;1.75;;;;;20.59;32.12;100245.56;5058834;28;45342;-55
2021/12/09 09:37:24;;;;;;;;;2.00;1.00;;;;;20.62;32.29;100245.38;5057042;28;46343;-53
2021/12/09 09:39:50;;;;;;;;;5.00;1.00;;;;;20.66;31.68;100246.88;5058537;28;45399;-55
2021/12/09 09:42:33;;;;;;;;;2.50;1.00;;;;;20.68;32.44;100250.22;5058543;28;45331;-56
2021/12/09 09:44:59;;;;;;;;;2.00;1.00;;;;;20.73;32.45;100257.00;5058908;28;45331;-51
2021/12/09 09:47:27;;;;;;;;;1.00;1.00;;;;;20.73;32.27;100257.00;5058334;28;45439;-56
2021/12/09 09:49:54;;;;;;;;;2.75;2.00;;;;;20.75;32.13;100255.16;5058342;28;45759;-55
2021/12/09 09:52:20;;;;;;;;;1.00;1.00;;;;;20.74;31.91;100263.97;5058521;28;45174;-55
2021/12/09 09:54:46;;;;;;;;;2.75;1.00;;;;;20.78;32.30;100265.50;5058634;28;45166;-56
2021/12/09 09:57:12;;;;;;;;;1.75;1.75;;;;;20.78;31.68;100266.31;5058267;28;45304;-55
2021/12/09 09:59:40;;;;;;;;;1.00;1.00;;;;;20.78;32.09;100273.38;5058512;28;45439;-55
2021/12/09 10:02:07;;;;;;;;;1.25;1.25;;;;;20.78;32.21;100271.59;5058529;28;45409;-56
2021/12/09 10:04:38;;;;;;;;;1.75;1.75;;;;;20.79;32.24;100272.41;5058440;28;45607;-55
2021/12/09 10:07:06;;;;;;;;;2.00;1.00;;;;;20.80;31.88;100266.22;5058488;28;46387;-55
2021/12/09 10:09:32;;;;;;;;;1.00;1.00;;;;;20.80;31.87;100269.72;5057771;28;45327;-56
2021/12/09 10:11:59;;;;;;;;;1.00;1.00;;;;;20.78;31.63;100250.53;5058346;28;45424;-56
2021/12/09 10:14:27;;;;;;;;;1.00;1.00;;;;;20.79;32.11;100256.63;5058158;28;45645;-55
2021/12/09 10:17:05;;;;;;;;;2.00;1.00;;;;;20.79;31.87;100251.34;5057813;28;47014;-55
2021/12/09 10:19:31;;;;;;;;;2.00;1.50;;;;;20.80;32.05;100245.13;5057814;28;45707;-55
2021/12/09 10:22:17;;;;;;;;;1.00;1.00;;;;;20.80;31.64;100243.38;5058098;28;45403;-55
2021/12/09 10:24:45;;;;;;;;;1.00;1.00;;;;;20.79;31.98;100240.81;5058198;28;45547;-56
2021/12/09 10:27:24;;;;;;;;;2.00;2.00;;;;;20.81;31.62;100244.19;5057744;28;45265;-55
2021/12/09 10:29:55;;;;;;;;;1.00;1.00;;;;;20.81;31.80;100234.53;5057688;28;45803;-56
2021/12/09 10:32:28;;;;;;;;;1.00;1.00;;;;;20.80;31.59;100235.47;5057603;28;45268;-59
2021/12/09 10:34:54;;;;;;;;;2.00;1.00;;;;;20.79;31.92;100232.91;5058053;28;45581;-55
2021/12/09 10:37:21;;;;;;;;;2.00;2.00;;;;;20.78;31.85;100234.72;5057661;28;45305;-55
2021/12/09 10:39:52;;;;;;;;;0.50;0.50;;;;;20.78;31.69;100229.44;5057786;28;45241;-56
2021/12/09 10:42:25;;;;;;;;;1.00;1.00;;;;;20.78;31.56;100224.19;5057736;28;45338;-56
2021/12/09 10:45:02;;;;;;;;;2.00;2.00;;;;;20.77;32.04;100221.66;5057982;28;45534;-56
2021/12/09 10:53:18;;;;;;;;;3.00;2.00;;;;;20.78;31.95;100218.91;5056939;28;45250;-56
2021/12/09 10:55:46;;;;;;;;;2.00;2.00;;;;;20.77;31.86;100219.03;5057801;28;45327;-55
2021/12/09 10:58:14;;;;;;;;;2.00;2.00;;;;;20.77;31.63;100217.22;5057276;28;46685;-55
2021/12/09 11:00:47;;;;;;;;;1.00;1.00;;;;;20.76;31.71;100209.44;5057648;28;45820;-54
2021/12/09 11:03:15;;;;;;;;;2.50;1.25;;;;;20.74;31.93;100206.88;5057504;28;45370;-54
2021/12/09 11:05:45;;;;;;;;;2.00;1.00;;;;;20.73;31.64;100204.34;5057879;28;45415;-55
2021/12/09 11:08:13;;;;;;;;;2.00;2.00;;;;;20.72;31.54;100207.91;5057374;28;46105;-56
2021/12/09 11:10:46;;;;;;;;;1.00;1.00;;;;;20.73;31.97;100206.97;5057430;28;45476;-56
2021/12/09 11:13:12;;;;;;;;;0.50;0.50;;;;;20.69;32.06;100199.25;5057400;28;45328;-54
2021/12/09 11:15:52;;;;;;;;;5.00;1.50;;;;;20.70;31.73;100203.59;5057769;28;45495;-54
2021/12/09 11:18:31;;;;;;;;;3.00;3.00;;;;;20.68;31.99;100202.84;5056755;28;46394;-55
2021/12/09 11:20:58;;;;;;;;;1.00;1.00;;;;;20.66;32.09;100198.63;5056651;28;45257;-55
2021/12/09 11:23:30;;;;;;;;;1.00;1.00;;;;;20.67;31.68;100197.69;5056924;28;45346;-54
2021/12/09 11:25:59;;;;;;;;;2.25;1.00;;;;;20.67;31.66;100189.78;5057212;28;45557;-56
2021/12/09 11:28:26;;;;;;;;;3.25;2.25;;;;;20.64;32.04;100190.84;5056640;28;46214;-55
2021/12/09 11:31:14;;;;;;;;;1.00;1.00;;;;;20.62;32.18;100187.47;5056747;28;45322;-54
2021/12/09 11:33:43;;;;;;;;;1.50;1.50;;;;;20.63;32.17;100183.88;5057202;28;45308;-56
2021/12/09 11:36:15;;;;;;;;;1.25;1.25;;;;;20.61;31.93;100185.75;5057300;28;45315;-52